createdAt,value
2022-10-12T00:00:22.506Z,6.68
2022-10-12T00:02:48.861Z,11.18
2022-10-12T00:05:15.339Z,9.43
2022-10-12T00:07:41.677Z,5.80
2022-10-12T00:10:08.221Z,8.10
2022-10-12T00:12:34.575Z,6.47
2022-10-12T00:15:00.969Z,6.35
2022-10-12T00:17:27.307Z,5.47
2022-10-12T00:19:53.631Z,7.05
2022-10-12T00:22:20.054Z,7.85
2022-10-12T00:24:47.073Z,6.07
2022-10-12T00:27:13.438Z,5.07
2022-10-12T00:29:39.823Z,6.10
2022-10-12T00:32:06.196Z,8.00
2022-10-12T00:34:32.603Z,8.50
2022-10-12T00:36:58.955Z,12.63
2022-10-12T00:39:25.314Z,7.72
2022-10-12T00:41:51.741Z,6.53
2022-10-12T00:44:50.640Z,6.90
2022-10-12T00:47:23.450Z,6.50
2022-10-12T00:49:56.038Z,6.72
2022-10-12T00:52:25.839Z,6.95
2022-10-12T00:54:53.591Z,8.68
2022-10-12T00:57:21.507Z,7.80
2022-10-12T00:59:50.290Z,8.13
2022-10-12T01:02:17.244Z,9.10
2022-10-12T01:04:43.797Z,7.82
2022-10-12T01:07:10.211Z,6.15
2022-10-12T01:09:36.688Z,9.63
2022-10-12T01:12:04.094Z,9.32
2022-10-12T01:14:30.486Z,8.98
2022-10-12T01:17:00.024Z,8.25
2022-10-12T01:19:38.456Z,5.38
2022-10-12T01:22:07.045Z,6.00
2022-10-12T01:24:36.171Z,8.38
2022-10-12T01:27:20.992Z,8.88
2022-10-12T01:30:05.627Z,6.25
2022-10-12T01:32:44.237Z,7.18
2022-10-12T01:35:20.660Z,8.95
2022-10-12T01:37:51.649Z,5.85
2022-10-12T01:40:26.751Z,8.13
2022-10-12T01:42:54.035Z,7.18
2022-10-12T01:45:20.561Z,4.30
2022-10-12T01:47:49.275Z,5.28
2022-10-12T01:50:16.648Z,5.05
2022-10-12T01:53:03.275Z,4.88
2022-10-12T01:55:51.323Z,4.20
2022-10-12T01:58:23.723Z,5.53
2022-10-12T02:01:10.415Z,20.50
2022-10-12T02:03:43.119Z,7.47
2022-10-12T02:06:15.990Z,8.38
2022-10-12T02:08:42.432Z,7.53
2022-10-12T02:11:13.384Z,7.10
2022-10-12T02:13:54.552Z,6.05
2022-10-12T02:16:23.955Z,12.23
2022-10-12T02:18:51.831Z,7.78
2022-10-12T02:21:20.564Z,9.18
2022-10-12T02:23:48.799Z,5.82
2022-10-12T02:26:15.801Z,9.35
2022-10-12T02:28:43.527Z,4.97
2022-10-12T02:31:29.383Z,6.57
2022-10-12T02:33:58.963Z,7.15
2022-10-12T02:36:37.733Z,7.43
2022-10-12T02:39:13.628Z,11.82
2022-10-12T02:41:42.561Z,5.88
2022-10-12T02:44:11.454Z,5.03
2022-10-12T02:46:38.818Z,5.40
2022-10-12T02:49:05.378Z,6.57
2022-10-12T02:51:32.351Z,9.73
2022-10-12T02:53:59.543Z,4.13
2022-10-12T02:56:26.002Z,4.13
2022-10-12T02:58:52.660Z,7.72
2022-10-12T03:01:19.155Z,3.85
2022-10-12T03:03:45.890Z,5.93
2022-10-12T03:06:12.504Z,6.45
2022-10-12T03:08:39.658Z,3.72
2022-10-12T03:11:07.154Z,4.65
2022-10-12T03:13:33.579Z,6.40
2022-10-12T03:16:07.519Z,4.88
2022-10-12T03:18:34.454Z,5.63
2022-10-12T03:21:00.868Z,5.22
2022-10-12T03:23:27.272Z,7.35
2022-10-12T03:25:53.980Z,8.27
2022-10-12T03:28:20.791Z,9.65
2022-10-12T03:30:47.174Z,19.13
2022-10-12T03:33:13.548Z,27.02
2022-10-12T03:35:39.938Z,12.43
2022-10-12T03:38:06.525Z,7.05
2022-10-12T03:40:32.865Z,6.00
2022-10-12T03:42:59.309Z,7.65
2022-10-12T03:45:25.669Z,9.38
2022-10-12T03:47:52.042Z,6.82
2022-10-12T03:50:18.403Z,9.57
2022-10-12T03:52:44.782Z,10.95
2022-10-12T03:55:11.133Z,8.40
2022-10-12T03:57:37.762Z,8.35
2022-10-12T04:00:04.644Z,8.63
2022-10-12T04:02:31.155Z,8.93
2022-10-12T04:04:57.526Z,6.10
2022-10-12T04:07:23.951Z,7.03
2022-10-12T04:09:50.603Z,8.77
2022-10-12T04:12:17.000Z,5.30
2022-10-12T04:14:43.352Z,7.03
2022-10-12T04:17:09.763Z,6.10
2022-10-12T04:19:36.150Z,10.63
2022-10-12T04:22:02.526Z,9.75
2022-10-12T04:24:28.889Z,6.47
2022-10-12T04:26:55.250Z,9.20
2022-10-12T04:29:22.374Z,7.35
2022-10-12T04:31:48.740Z,13.23
2022-10-12T04:34:15.103Z,6.32
2022-10-12T04:36:41.511Z,7.47
2022-10-12T04:39:08.263Z,10.60
2022-10-12T04:41:34.635Z,7.05
2022-10-12T04:44:01.148Z,7.07
2022-10-12T04:46:27.492Z,6.65
2022-10-12T04:48:53.852Z,8.27
2022-10-12T04:51:20.274Z,4.53
2022-10-12T04:53:46.667Z,7.35
2022-10-12T04:56:13.036Z,6.07
2022-10-12T04:58:39.449Z,6.75
2022-10-12T05:01:05.904Z,4.55
2022-10-12T05:03:32.353Z,7.72
2022-10-12T05:05:58.810Z,10.13
2022-10-12T05:08:25.630Z,10.27
2022-10-12T05:10:52.055Z,7.55
2022-10-12T05:13:18.766Z,5.28
2022-10-12T05:15:45.342Z,7.65
2022-10-12T05:18:11.685Z,7.47
2022-10-12T05:20:38.040Z,12.00
2022-10-12T05:23:04.565Z,6.30
2022-10-12T05:25:31.046Z,10.93
2022-10-12T05:27:57.410Z,7.70
2022-10-12T05:30:24.025Z,4.88
2022-10-12T05:32:50.444Z,8.38
2022-10-12T05:35:16.891Z,7.38
2022-10-12T05:37:43.285Z,7.85
2022-10-12T05:40:10.017Z,8.55
2022-10-12T05:42:36.758Z,11.60
2022-10-12T05:45:03.526Z,4.70
2022-10-12T05:47:30.696Z,6.85
2022-10-12T05:49:57.072Z,7.22
2022-10-12T05:52:23.543Z,5.70
2022-10-12T05:54:49.891Z,7.22
2022-10-12T05:57:16.359Z,9.10
2022-10-12T05:59:43.236Z,10.05
2022-10-12T06:02:16.264Z,5.60
2022-10-12T06:04:42.830Z,10.10
2022-10-12T06:07:09.291Z,8.77
2022-10-12T06:09:38.835Z,7.38
2022-10-12T06:12:05.809Z,9.27
2022-10-12T06:14:32.395Z,5.72
2022-10-12T06:16:58.786Z,7.57
2022-10-12T06:19:25.184Z,5.60
2022-10-12T06:21:51.518Z,9.45
2022-10-12T06:24:17.898Z,8.98
2022-10-12T06:26:44.242Z,9.00
2022-10-12T06:29:10.665Z,6.45
2022-10-12T06:31:38.315Z,8.35
2022-10-12T06:34:04.680Z,8.32
2022-10-12T06:36:31.283Z,10.75
2022-10-12T06:38:57.708Z,11.80
2022-10-12T06:41:24.081Z,9.23
2022-10-12T06:43:50.447Z,7.07
2022-10-12T06:46:16.816Z,6.85
2022-10-12T06:48:43.164Z,7.88
2022-10-12T06:51:09.607Z,11.18
2022-10-12T06:53:36.650Z,6.57
2022-10-12T06:56:06.993Z,10.68
2022-10-12T06:58:33.505Z,7.15
2022-10-12T07:01:01.951Z,14.10
2022-10-12T07:03:28.287Z,11.30
2022-10-12T07:05:54.657Z,9.45
2022-10-12T07:08:21.088Z,15.30
2022-10-12T07:10:47.457Z,9.68
2022-10-12T07:13:13.835Z,13.05
2022-10-12T07:15:40.192Z,11.18
2022-10-12T07:18:06.557Z,19.20
2022-10-12T07:23:21.010Z,8.88
2022-10-12T07:25:48.100Z,15.30
2022-10-12T07:28:14.457Z,8.52
2022-10-12T07:30:40.825Z,8.30
2022-10-12T07:33:07.130Z,9.23
2022-10-12T07:35:33.480Z,7.80
2022-10-12T07:37:59.887Z,9.43
2022-10-12T07:40:26.445Z,8.32
2022-10-12T07:43:14.831Z,9.55
2022-10-12T07:45:39.875Z,10.20
2022-10-12T07:48:06.285Z,17.77
2022-10-12T07:50:32.606Z,11.50
2022-10-12T07:52:58.952Z,10.57
2022-10-12T07:55:25.323Z,13.10
2022-10-12T07:57:51.712Z,7.55
2022-10-12T08:00:18.193Z,11.65
2022-10-12T08:02:44.573Z,12.48
2022-10-12T08:05:10.936Z,10.35
2022-10-12T08:07:37.886Z,8.63
2022-10-12T08:10:04.662Z,9.95
2022-10-12T08:12:31.080Z,10.18
2022-10-12T08:14:57.400Z,8.40
2022-10-12T08:17:24.389Z,10.00
2022-10-12T08:19:50.744Z,7.93
2022-10-12T08:22:17.086Z,10.18
2022-10-12T08:24:43.724Z,12.65
2022-10-12T08:27:10.414Z,16.58
2022-10-12T08:29:36.785Z,15.48
2022-10-12T08:32:03.201Z,9.60
2022-10-12T08:34:30.935Z,9.32
2022-10-12T08:36:58.321Z,11.55
2022-10-12T08:39:24.753Z,8.20
2022-10-12T08:42:10.009Z,12.52
2022-10-12T08:44:52.711Z,11.63
2022-10-12T08:47:27.677Z,13.93
2022-10-12T08:49:54.002Z,12.70
2022-10-12T08:52:23.693Z,12.27
2022-10-12T08:54:50.028Z,10.18
2022-10-12T08:57:17.493Z,9.13
2022-10-12T08:59:44.246Z,8.98
2022-10-12T09:02:13.799Z,9.98
2022-10-12T09:04:43.135Z,9.07
2022-10-12T09:07:15.158Z,10.43
2022-10-12T09:09:47.097Z,8.98
2022-10-12T09:12:30.230Z,9.65
2022-10-12T09:15:00.368Z,9.20
2022-10-12T09:17:28.426Z,9.52
2022-10-12T09:20:03.671Z,8.35
2022-10-12T09:22:30.862Z,11.68
2022-10-12T09:24:57.864Z,12.98
2022-10-12T09:27:24.207Z,13.13
2022-10-12T09:29:53.215Z,12.93
2022-10-12T09:32:23.171Z,10.43
2022-10-12T09:34:49.919Z,8.50
2022-10-12T09:37:22.310Z,15.65
2022-10-12T09:39:49.206Z,9.52
2022-10-12T09:42:15.772Z,10.70
2022-10-12T09:44:44.028Z,10.43
2022-10-12T09:47:30.397Z,10.07
2022-10-12T09:49:58.683Z,10.43
2022-10-12T09:52:27.723Z,10.93
2022-10-12T09:55:06.177Z,12.80
2022-10-12T09:57:35.469Z,10.27
2022-10-12T10:00:06.004Z,9.18
2022-10-12T10:02:47.194Z,9.35
2022-10-12T10:05:15.016Z,10.63
2022-10-12T10:07:41.383Z,12.93
2022-10-12T10:10:22.774Z,8.88
2022-10-12T10:12:56.035Z,9.27
2022-10-12T10:15:27.915Z,19.52
2022-10-12T10:17:59.747Z,11.77
2022-10-12T10:20:28.898Z,12.15
2022-10-12T10:22:56.113Z,10.88
2022-10-12T10:25:22.874Z,13.32
2022-10-12T10:27:51.052Z,12.00
2022-10-12T10:30:29.992Z,7.63
2022-10-12T10:33:12.754Z,8.50
2022-10-12T10:35:39.229Z,12.30
2022-10-12T10:38:07.445Z,10.68
2022-10-12T10:40:34.020Z,13.73
2022-10-12T10:43:16.029Z,8.60
2022-10-12T10:45:50.474Z,11.18
2022-10-12T10:48:26.394Z,11.15
2022-10-12T10:50:58.833Z,12.27
2022-10-12T10:53:26.550Z,7.50
2022-10-12T10:56:11.832Z,9.30
2022-10-12T10:58:41.708Z,15.95
2022-10-12T11:01:34.607Z,11.15
2022-10-12T11:04:19.975Z,11.25
2022-10-12T11:06:52.316Z,8.73
2022-10-12T11:09:41.275Z,9.38
2022-10-12T11:12:09.951Z,10.75
2022-10-12T11:14:41.497Z,10.50
2022-10-12T11:17:15.989Z,9.18
2022-10-12T11:19:42.431Z,12.40
2022-10-12T11:22:15.417Z,12.50
2022-10-12T11:24:52.034Z,10.23
2022-10-12T11:27:28.201Z,12.45
2022-10-12T11:30:08.410Z,11.18
2022-10-12T11:32:38.622Z,12.50
2022-10-12T11:35:06.442Z,10.65
2022-10-12T11:37:32.775Z,9.48
2022-10-12T11:40:01.548Z,8.75
2022-10-12T11:42:28.394Z,10.05
2022-10-12T11:44:55.030Z,14.50
2022-10-12T11:47:27.544Z,18.15
2022-10-12T11:49:57.750Z,12.18
2022-10-12T11:52:28.722Z,11.13
2022-10-12T11:55:04.600Z,15.43
2022-10-12T11:57:33.887Z,9.60
2022-10-12T12:00:00.267Z,9.63
2022-10-12T12:02:32.031Z,11.90
2022-10-12T12:04:59.031Z,10.93
2022-10-12T12:07:43.977Z,10.25
2022-10-12T12:10:25.723Z,13.60
2022-10-12T12:13:11.677Z,11.70
2022-10-12T12:15:38.760Z,12.13
2022-10-12T12:18:11.714Z,10.23
2022-10-12T12:20:58.369Z,8.05
2022-10-12T12:23:26.203Z,7.70
2022-10-12T12:26:04.529Z,11.75
2022-10-12T12:28:31.444Z,10.75
2022-10-12T12:30:59.903Z,10.65
2022-10-12T12:33:38.539Z,10.45
2022-10-12T12:36:07.059Z,7.88
2022-10-12T12:38:34.428Z,10.55
2022-10-12T12:41:03.149Z,9.38
2022-10-12T12:43:29.471Z,7.50
2022-10-12T12:45:57.531Z,9.95
2022-10-12T12:48:56.925Z,10.35
2022-10-12T12:51:25.709Z,11.15
2022-10-12T12:54:10.847Z,10.38
2022-10-12T12:57:03.945Z,10.32
2022-10-12T12:59:59.234Z,8.50
2022-10-12T13:02:40.696Z,12.25
2022-10-12T13:05:07.047Z,12.25
2022-10-12T13:07:36.555Z,8.38
2022-10-12T13:10:22.861Z,11.18
2022-10-12T13:12:55.313Z,13.73
2022-10-12T13:15:30.997Z,12.18
2022-10-12T13:17:57.406Z,12.68
2022-10-12T13:20:28.962Z,9.60
2022-10-12T13:22:57.721Z,13.75
2022-10-12T13:25:54.898Z,12.48
2022-10-12T13:28:25.509Z,15.05
2022-10-12T13:30:58.590Z,13.68
2022-10-12T13:33:40.670Z,10.85
2022-10-12T13:36:27.209Z,10.68
2022-10-12T13:38:57.560Z,9.50
2022-10-12T13:41:25.538Z,12.65
2022-10-12T13:43:57.070Z,9.95
2022-10-12T13:46:32.588Z,10.23
2022-10-12T13:49:00.190Z,12.48
2022-10-12T13:51:27.869Z,13.73
2022-10-12T13:53:54.322Z,9.02
2022-10-12T13:56:26.055Z,12.05
2022-10-12T13:58:56.452Z,14.75
2022-10-12T14:01:22.894Z,13.30
2022-10-12T14:03:49.339Z,14.07
2022-10-12T14:06:35.179Z,14.55
2022-10-12T14:09:05.661Z,16.08
2022-10-12T14:11:32.161Z,12.68
2022-10-12T14:13:58.600Z,11.77
2022-10-12T14:16:25.016Z,12.77
2022-10-12T14:18:51.489Z,16.05
2022-10-12T14:21:22.387Z,14.02
2022-10-12T14:23:59.694Z,13.70
2022-10-12T14:26:26.411Z,13.63
2022-10-12T14:28:53.013Z,12.55
2022-10-12T14:31:19.633Z,15.43
2022-10-12T14:33:46.049Z,13.57
2022-10-12T14:36:12.459Z,13.52
2022-10-12T14:38:45.840Z,12.00
2022-10-12T14:41:32.292Z,14.30
2022-10-12T14:44:18.123Z,13.27
2022-10-12T14:46:53.082Z,13.70
2022-10-12T14:49:19.556Z,13.30
2022-10-12T14:51:46.253Z,11.65
2022-10-12T14:54:12.606Z,15.52
2022-10-12T14:56:39.093Z,12.82
2022-10-12T14:59:05.462Z,14.43
2022-10-12T15:01:31.831Z,15.13
2022-10-12T15:03:58.240Z,13.63
2022-10-12T15:06:24.616Z,16.23
2022-10-12T15:08:52.447Z,11.27
2022-10-12T15:11:19.156Z,11.10
2022-10-12T15:13:45.650Z,15.07
2022-10-12T15:16:23.622Z,12.43
2022-10-12T15:18:50.063Z,14.93
2022-10-12T15:21:16.945Z,12.80
2022-10-12T15:23:43.903Z,13.43
2022-10-12T15:26:14.310Z,16.33
2022-10-12T15:28:41.108Z,17.60
2022-10-12T15:31:22.785Z,14.75
2022-10-12T15:33:49.197Z,16.10
2022-10-12T15:36:15.598Z,16.08
2022-10-12T15:38:42.043Z,13.73
2022-10-12T15:41:15.760Z,14.73
2022-10-12T15:46:12.108Z,15.27
2022-10-12T15:48:40.245Z,16.23
2022-10-12T15:51:12.620Z,13.95
2022-10-12T15:53:38.952Z,17.50
2022-10-12T15:56:10.652Z,13.45
2022-10-12T15:58:37.014Z,12.60
2022-10-12T16:01:03.385Z,14.75
2022-10-12T16:03:31.526Z,14.13
2022-10-12T16:05:58.014Z,15.35
2022-10-12T16:08:24.557Z,10.65
2022-10-12T16:10:51.124Z,15.13
2022-10-12T16:13:17.751Z,15.75
2022-10-12T16:15:44.185Z,15.10
2022-10-12T16:18:11.397Z,14.18
2022-10-12T16:20:38.559Z,17.92
2022-10-12T16:23:06.505Z,17.30
2022-10-12T16:25:33.088Z,14.80
2022-10-12T16:27:59.461Z,18.00
2022-10-12T16:30:26.440Z,16.15
2022-10-12T16:32:52.793Z,25.20
2022-10-12T16:35:19.421Z,14.27
2022-10-12T16:37:45.808Z,12.85
2022-10-12T16:40:12.688Z,12.88
2022-10-12T16:42:39.106Z,17.60
2022-10-12T16:45:05.935Z,18.10
2022-10-12T16:47:32.289Z,15.27
2022-10-12T16:49:58.644Z,14.50
2022-10-12T16:52:25.534Z,11.90
2022-10-12T16:54:52.663Z,12.20
2022-10-12T16:57:19.285Z,14.45
2022-10-12T16:59:46.217Z,14.60
2022-10-12T17:02:13.316Z,13.70
2022-10-12T17:04:39.887Z,14.60
2022-10-12T17:07:06.315Z,17.58
2022-10-12T17:09:32.937Z,20.08
2022-10-12T17:11:59.903Z,23.85
2022-10-12T17:14:26.351Z,18.20
2022-10-12T17:16:52.822Z,15.60
2022-10-12T17:19:29.565Z,14.23
2022-10-12T17:21:59.262Z,19.50
2022-10-12T17:24:27.400Z,16.23
2022-10-12T17:26:54.075Z,14.93
2022-10-12T17:29:20.713Z,17.02
2022-10-12T17:31:47.404Z,16.13
2022-10-12T17:34:17.828Z,17.88
2022-10-12T17:36:44.283Z,18.98
2022-10-12T17:39:10.816Z,16.00
2022-10-12T17:41:37.259Z,20.38
2022-10-12T17:44:03.659Z,23.85
2022-10-12T17:46:30.152Z,20.00
2022-10-12T17:48:56.595Z,19.92
2022-10-12T17:51:23.073Z,17.63
2022-10-12T17:53:49.487Z,17.92
2022-10-12T17:56:15.983Z,16.95
2022-10-12T17:58:42.493Z,15.38
2022-10-12T18:01:11.168Z,21.63
2022-10-12T18:03:39.467Z,17.08
2022-10-12T18:06:06.728Z,20.20
2022-10-12T18:08:33.217Z,25.35
2022-10-12T18:11:00.423Z,25.58
2022-10-12T18:13:27.764Z,19.48
2022-10-12T18:15:54.462Z,14.20
2022-10-12T18:18:20.936Z,18.30
2022-10-12T18:20:47.544Z,17.40
2022-10-12T18:23:13.976Z,27.83
2022-10-12T18:25:40.739Z,29.55
2022-10-12T18:28:07.799Z,26.50
2022-10-12T18:30:34.435Z,24.52
2022-10-12T18:33:00.947Z,26.05
2022-10-12T18:35:30.951Z,23.65
2022-10-12T18:37:57.386Z,19.73
2022-10-12T18:40:23.805Z,19.65
2022-10-12T18:42:50.250Z,20.50
2022-10-12T18:45:16.699Z,25.73
2022-10-12T18:47:43.137Z,25.65
2022-10-12T18:50:09.585Z,22.13
2022-10-12T18:52:36.083Z,20.33
2022-10-12T18:55:02.624Z,22.52
2022-10-12T18:57:31.670Z,22.48
2022-10-12T18:59:59.961Z,17.50
2022-10-12T19:02:26.543Z,21.20
2022-10-12T19:04:52.995Z,26.27
2022-10-12T19:07:19.534Z,32.17
2022-10-12T19:09:45.931Z,23.88
2022-10-12T19:12:13.575Z,20.25
2022-10-12T19:14:40.030Z,18.25
2022-10-12T19:17:06.391Z,22.65
2022-10-12T19:19:32.775Z,19.05
2022-10-12T19:21:59.270Z,22.10
2022-10-12T19:24:25.667Z,23.30
2022-10-12T19:26:52.109Z,22.10
2022-10-12T19:29:18.457Z,18.95
2022-10-12T19:31:46.503Z,19.15
2022-10-12T19:34:13.893Z,16.95
2022-10-12T19:36:40.505Z,17.48
2022-10-12T19:39:08.490Z,21.17
2022-10-12T19:41:35.127Z,22.75
2022-10-12T19:44:01.944Z,16.83
2022-10-12T19:46:28.345Z,18.35
2022-10-12T19:48:55.607Z,21.58
2022-10-12T19:51:23.056Z,22.38
2022-10-12T19:53:53.041Z,23.85
2022-10-12T19:56:22.536Z,15.52
2022-10-12T19:58:50.083Z,18.23
2022-10-12T20:01:18.831Z,19.02
2022-10-12T20:03:47.904Z,16.48
2022-10-12T20:06:14.512Z,19.58
2022-10-12T20:08:42.051Z,20.05
2022-10-12T20:11:12.145Z,17.58
2022-10-12T20:13:42.152Z,19.52
2022-10-12T20:16:08.901Z,19.15
2022-10-12T20:18:35.635Z,18.08
2022-10-12T20:21:05.079Z,25.25
2022-10-12T20:23:34.363Z,21.52
2022-10-12T20:26:04.018Z,19.60
2022-10-12T20:28:30.405Z,21.80
2022-10-12T20:31:00.117Z,17.25
2022-10-12T20:33:26.497Z,20.63
2022-10-12T20:35:52.889Z,20.30
2022-10-12T20:38:19.350Z,20.77
2022-10-12T20:40:48.639Z,20.70
2022-10-12T20:43:15.820Z,18.63
2022-10-12T20:45:42.310Z,17.30
2022-10-12T20:48:08.856Z,19.48
2022-10-12T20:50:35.205Z,18.33
2022-10-12T20:53:01.638Z,23.60
2022-10-12T20:55:27.958Z,20.17
2022-10-12T20:57:54.347Z,16.70
2022-10-12T21:00:20.728Z,19.67
2022-10-12T21:02:47.121Z,18.70
2022-10-12T21:05:13.464Z,24.67
2022-10-12T21:07:39.853Z,18.00
2022-10-12T21:10:06.673Z,18.23
2022-10-12T21:12:33.100Z,18.15
2022-10-12T21:14:59.439Z,21.10
2022-10-12T21:17:25.836Z,16.17
2022-10-12T21:19:53.671Z,20.17
2022-10-12T21:22:20.501Z,15.77
2022-10-12T21:24:47.219Z,18.30
2022-10-12T21:27:13.572Z,21.88
2022-10-12T21:29:40.020Z,21.55
2022-10-12T21:32:06.391Z,14.95
2022-10-12T21:34:32.835Z,17.30
2022-10-12T21:36:59.201Z,18.35
2022-10-12T21:39:25.904Z,18.65
2022-10-12T21:41:52.274Z,21.17
2022-10-12T21:44:18.698Z,17.98
2022-10-12T21:46:45.087Z,20.00
2022-10-12T21:49:11.424Z,17.65
2022-10-12T21:51:38.116Z,18.83
2022-10-12T21:54:05.306Z,17.70
2022-10-12T21:56:32.893Z,19.33
2022-10-12T21:59:00.394Z,18.67
2022-10-12T22:01:28.465Z,19.95
2022-10-12T22:03:55.862Z,18.98
2022-10-12T22:06:22.864Z,22.48
2022-10-12T22:08:51.027Z,26.30
2022-10-12T22:11:17.951Z,25.15
2022-10-12T22:13:44.313Z,20.75
2022-10-12T22:16:11.614Z,15.90
2022-10-12T22:18:37.993Z,22.10
2022-10-12T22:21:08.990Z,17.05
2022-10-12T22:23:35.813Z,19.42
2022-10-12T22:26:04.011Z,17.63
2022-10-12T22:28:30.697Z,21.27
2022-10-12T22:30:57.164Z,17.60
2022-10-12T22:33:23.564Z,22.10
2022-10-12T22:35:57.028Z,15.23
2022-10-12T22:38:23.480Z,17.27
2022-10-12T22:41:00.330Z,19.92
2022-10-12T22:43:27.601Z,18.42
2022-10-12T22:45:54.832Z,20.80
2022-10-12T22:48:21.727Z,17.27
2022-10-12T22:50:48.477Z,17.88
2022-10-12T22:53:15.666Z,14.73
2022-10-12T22:55:42.488Z,19.83
2022-10-12T22:58:08.979Z,15.32
2022-10-12T23:00:35.426Z,19.05
2022-10-12T23:03:02.065Z,19.50
2022-10-12T23:05:28.460Z,19.50
2022-10-12T23:07:55.161Z,20.02
2022-10-12T23:10:21.525Z,19.10
2022-10-12T23:12:48.037Z,18.48
2022-10-12T23:15:14.474Z,21.48
2022-10-12T23:17:41.033Z,16.75
2022-10-12T23:20:07.575Z,15.30
2022-10-12T23:22:33.932Z,18.48
2022-10-12T23:25:00.428Z,22.83
2022-10-12T23:27:27.839Z,17.60
2022-10-12T23:29:54.437Z,18.95
2022-10-12T23:32:21.179Z,17.25
2022-10-12T23:34:47.931Z,19.38
2022-10-12T23:37:14.284Z,16.95
2022-10-12T23:39:40.643Z,19.63
2022-10-12T23:42:10.068Z,18.55
2022-10-12T23:44:36.394Z,18.02
2022-10-12T23:47:02.818Z,18.88
2022-10-12T23:49:29.163Z,17.73
2022-10-12T23:52:00.618Z,19.27
2022-10-12T23:54:27.029Z,18.17
2022-10-12T23:56:53.390Z,17.23
2022-10-12T23:59:19.769Z,17.27
